sensor_id;sensor_type;location;lat;lon;timestamp;P1;durP1;ratioP1;P2;durP2;ratioP2
19434;SDS011;9853;50.848;4.108;2023-08-06T00:01:14;2.35;;;1.10;;
19434;SDS011;9853;50.848;4.108;2023-08-06T00:03:15;3.85;;;1.23;;
19434;SDS011;9853;50.848;4.108;2023-08-06T00:05:16;4.03;;;1.20;;
19434;SDS011;9853;50.848;4.108;2023-08-06T00:07:21;1.45;;;0.88;;
19434;SDS011;9853;50.848;4.108;2023-08-06T00:09:22;2.00;;;1.10;;
19434;SDS011;9853;50.848;4.108;2023-08-06T00:11:22;1.80;;;1.38;;
19434;SDS011;9853;50.848;4.108;2023-08-06T00:13:23;2.35;;;1.45;;
19434;SDS011;9853;50.848;4.108;2023-08-06T00:15:24;2.72;;;1.80;;
19434;SDS011;9853;50.848;4.108;2023-08-06T00:17:25;6.00;;;1.88;;
19434;SDS011;9853;50.848;4.108;2023-08-06T00:19:25;4.15;;;1.98;;
19434;SDS011;9853;50.848;4.108;2023-08-06T00:21:26;5.78;;;2.20;;
19434;SDS011;9853;50.848;4.108;2023-08-06T00:23:27;5.25;;;2.22;;
19434;SDS011;9853;50.848;4.108;2023-08-06T00:25:28;4.95;;;2.08;;
19434;SDS011;9853;50.848;4.108;2023-08-06T00:27:28;4.30;;;2.80;;
19434;SDS011;9853;50.848;4.108;2023-08-06T00:29:29;4.05;;;2.20;;
19434;SDS011;9853;50.848;4.108;2023-08-06T00:31:30;4.53;;;2.45;;
19434;SDS011;9853;50.848;4.108;2023-08-06T00:33:31;6.18;;;2.30;;
19434;SDS011;9853;50.848;4.108;2023-08-06T00:35:32;3.83;;;2.17;;
19434;SDS011;9853;50.848;4.108;2023-08-06T00:37:32;4.97;;;2.72;;
19434;SDS011;9853;50.848;4.108;2023-08-06T00:39:33;4.35;;;2.13;;
19434;SDS011;9853;50.848;4.108;2023-08-06T00:41:34;3.28;;;2.33;;
19434;SDS011;9853;50.848;4.108;2023-08-06T00:43:35;5.43;;;2.50;;
19434;SDS011;9853;50.848;4.108;2023-08-06T00:45:36;5.53;;;2.65;;
19434;SDS011;9853;50.848;4.108;2023-08-06T00:47:37;7.82;;;3.17;;
19434;SDS011;9853;50.848;4.108;2023-08-06T00:49:39;5.07;;;3.08;;
19434;SDS011;9853;50.848;4.108;2023-08-06T00:51:40;5.13;;;2.78;;
19434;SDS011;9853;50.848;4.108;2023-08-06T00:53:42;5.70;;;2.65;;
19434;SDS011;9853;50.848;4.108;2023-08-06T00:55:44;5.75;;;2.50;;
19434;SDS011;9853;50.848;4.108;2023-08-06T00:57:45;7.50;;;2.85;;
19434;SDS011;9853;50.848;4.108;2023-08-06T00:59:47;5.20;;;3.22;;
19434;SDS011;9853;50.848;4.108;2023-08-06T01:01:47;6.65;;;3.30;;
19434;SDS011;9853;50.848;4.108;2023-08-06T01:03:50;6.45;;;3.50;;
19434;SDS011;9853;50.848;4.108;2023-08-06T01:05:51;5.03;;;3.00;;
19434;SDS011;9853;50.848;4.108;2023-08-06T01:08:16;6.97;;;2.85;;
19434;SDS011;9853;50.848;4.108;2023-08-06T01:12:34;7.00;;;3.00;;
19434;SDS011;9853;50.848;4.108;2023-08-06T01:16:50;3.42;;;2.55;;
19434;SDS011;9853;50.848;4.108;2023-08-06T01:18:51;5.07;;;2.25;;
19434;SDS011;9853;50.848;4.108;2023-08-06T01:20:52;4.00;;;2.00;;
19434;SDS011;9853;50.848;4.108;2023-08-06T01:22:53;3.35;;;1.77;;
19434;SDS011;9853;50.848;4.108;2023-08-06T01:24:54;3.63;;;1.70;;
19434;SDS011;9853;50.848;4.108;2023-08-06T01:27:01;5.57;;;1.77;;
19434;SDS011;9853;50.848;4.108;2023-08-06T01:31:40;3.03;;;1.50;;
19434;SDS011;9853;50.848;4.108;2023-08-06T01:33:43;2.65;;;1.10;;
19434;SDS011;9853;50.848;4.108;2023-08-06T01:35:45;4.72;;;1.10;;
19434;SDS011;9853;50.848;4.108;2023-08-06T01:37:48;3.95;;;0.85;;
19434;SDS011;9853;50.848;4.108;2023-08-06T01:39:49;1.35;;;0.63;;
19434;SDS011;9853;50.848;4.108;2023-08-06T01:41:50;4.53;;;0.80;;
19434;SDS011;9853;50.848;4.108;2023-08-06T01:43:51;4.75;;;0.85;;
19434;SDS011;9853;50.848;4.108;2023-08-06T01:45:51;4.00;;;0.93;;
19434;SDS011;9853;50.848;4.108;2023-08-06T01:47:52;4.75;;;1.30;;
19434;SDS011;9853;50.848;4.108;2023-08-06T01:49:53;0.80;;;0.55;;
19434;SDS011;9853;50.848;4.108;2023-08-06T01:51:54;4.80;;;0.88;;
19434;SDS011;9853;50.848;4.108;2023-08-06T01:53:54;2.67;;;0.60;;
19434;SDS011;9853;50.848;4.108;2023-08-06T01:55:55;1.98;;;0.80;;
19434;SDS011;9853;50.848;4.108;2023-08-06T01:57:56;4.50;;;0.75;;
19434;SDS011;9853;50.848;4.108;2023-08-06T01:59:57;4.85;;;0.50;;
19434;SDS011;9853;50.848;4.108;2023-08-06T02:01:58;2.03;;;0.57;;
19434;SDS011;9853;50.848;4.108;2023-08-06T02:03:59;1.50;;;0.50;;
19434;SDS011;9853;50.848;4.108;2023-08-06T02:06:00;2.97;;;0.57;;
19434;SDS011;9853;50.848;4.108;2023-08-06T02:08:01;2.88;;;0.85;;
19434;SDS011;9853;50.848;4.108;2023-08-06T02:10:02;2.25;;;0.40;;
19434;SDS011;9853;50.848;4.108;2023-08-06T02:12:03;1.00;;;0.40;;
19434;SDS011;9853;50.848;4.108;2023-08-06T02:14:04;1.60;;;0.63;;
19434;SDS011;9853;50.848;4.108;2023-08-06T02:16:06;2.60;;;0.50;;
19434;SDS011;9853;50.848;4.108;2023-08-06T02:18:10;0.88;;;0.50;;
19434;SDS011;9853;50.848;4.108;2023-08-06T02:20:10;2.85;;;0.60;;
19434;SDS011;9853;50.848;4.108;2023-08-06T02:22:11;4.05;;;0.85;;
19434;SDS011;9853;50.848;4.108;2023-08-06T02:24:12;5.40;;;0.70;;
19434;SDS011;9853;50.848;4.108;2023-08-06T02:26:13;2.85;;;0.90;;
19434;SDS011;9853;50.848;4.108;2023-08-06T02:28:13;2.95;;;1.00;;
19434;SDS011;9853;50.848;4.108;2023-08-06T02:30:14;2.60;;;1.40;;
19434;SDS011;9853;50.848;4.108;2023-08-06T02:32:15;3.85;;;1.10;;
19434;SDS011;9853;50.848;4.108;2023-08-06T02:34:16;2.03;;;1.20;;
19434;SDS011;9853;50.848;4.108;2023-08-06T02:36:16;2.35;;;1.27;;
19434;SDS011;9853;50.848;4.108;2023-08-06T02:38:17;4.68;;;1.30;;
19434;SDS011;9853;50.848;4.108;2023-08-06T02:40:18;2.97;;;1.85;;
19434;SDS011;9853;50.848;4.108;2023-08-06T02:42:19;4.68;;;2.22;;
19434;SDS011;9853;50.848;4.108;2023-08-06T02:44:20;4.90;;;2.97;;
19434;SDS011;9853;50.848;4.108;2023-08-06T02:46:20;5.63;;;3.25;;
19434;SDS011;9853;50.848;4.108;2023-08-06T02:48:21;7.90;;;4.85;;
19434;SDS011;9853;50.848;4.108;2023-08-06T02:50:22;8.68;;;5.18;;
19434;SDS011;9853;50.848;4.108;2023-08-06T02:52:23;8.60;;;4.65;;
19434;SDS011;9853;50.848;4.108;2023-08-06T02:54:23;10.40;;;5.47;;
19434;SDS011;9853;50.848;4.108;2023-08-06T02:56:24;9.45;;;4.60;;
19434;SDS011;9853;50.848;4.108;2023-08-06T02:58:44;7.18;;;4.53;;
19434;SDS011;9853;50.848;4.108;2023-08-06T03:01:01;7.60;;;3.35;;
19434;SDS011;9853;50.848;4.108;2023-08-06T03:03:07;4.35;;;2.95;;
19434;SDS011;9853;50.848;4.108;2023-08-06T03:05:17;2.17;;;1.50;;
19434;SDS011;9853;50.848;4.108;2023-08-06T03:07:20;2.25;;;1.10;;
19434;SDS011;9853;50.848;4.108;2023-08-06T03:09:27;0.63;;;0.60;;
19434;SDS011;9853;50.848;4.108;2023-08-06T03:11:28;3.15;;;0.88;;
19434;SDS011;9853;50.848;4.108;2023-08-06T03:13:35;0.90;;;0.70;;
19434;SDS011;9853;50.848;4.108;2023-08-06T03:15:36;2.30;;;0.60;;
19434;SDS011;9853;50.848;4.108;2023-08-06T03:17:37;3.33;;;0.60;;
19434;SDS011;9853;50.848;4.108;2023-08-06T03:19:39;2.30;;;0.70;;
19434;SDS011;9853;50.848;4.108;2023-08-06T03:21:40;0.93;;;0.50;;
19434;SDS011;9853;50.848;4.108;2023-08-06T03:23:42;1.85;;;0.65;;
19434;SDS011;9853;50.848;4.108;2023-08-06T03:25:43;1.75;;;0.68;;
19434;SDS011;9853;50.848;4.108;2023-08-06T03:27:46;3.05;;;0.90;;
19434;SDS011;9853;50.848;4.108;2023-08-06T03:29:49;1.33;;;0.68;;
19434;SDS011;9853;50.848;4.108;2023-08-06T03:31:51;2.10;;;0.90;;
19434;SDS011;9853;50.848;4.108;2023-08-06T03:33:52;3.40;;;1.02;;
19434;SDS011;9853;50.848;4.108;2023-08-06T03:35:58;1.50;;;1.00;;
19434;SDS011;9853;50.848;4.108;2023-08-06T03:37:59;2.08;;;1.10;;
19434;SDS011;9853;50.848;4.108;2023-08-06T03:40:02;2.47;;;1.15;;
19434;SDS011;9853;50.848;4.108;2023-08-06T03:42:04;1.38;;;1.10;;
19434;SDS011;9853;50.848;4.108;2023-08-06T03:44:05;3.88;;;1.20;;
19434;SDS011;9853;50.848;4.108;2023-08-06T03:46:06;2.92;;;1.38;;
19434;SDS011;9853;50.848;4.108;2023-08-06T03:48:08;1.40;;;0.77;;
19434;SDS011;9853;50.848;4.108;2023-08-06T03:50:09;2.55;;;1.00;;
19434;SDS011;9853;50.848;4.108;2023-08-06T03:52:10;2.95;;;0.95;;
19434;SDS011;9853;50.848;4.108;2023-08-06T03:54:11;4.90;;;1.40;;
19434;SDS011;9853;50.848;4.108;2023-08-06T03:56:12;2.45;;;1.10;;
19434;SDS011;9853;50.848;4.108;2023-08-06T03:58:13;1.83;;;1.00;;
19434;SDS011;9853;50.848;4.108;2023-08-06T04:00:14;2.28;;;1.20;;
19434;SDS011;9853;50.848;4.108;2023-08-06T04:02:25;8.73;;;1.65;;
19434;SDS011;9853;50.848;4.108;2023-08-06T04:04:26;3.63;;;1.17;;
19434;SDS011;9853;50.848;4.108;2023-08-06T04:06:27;3.65;;;1.40;;
19434;SDS011;9853;50.848;4.108;2023-08-06T04:08:27;3.25;;;1.27;;
19434;SDS011;9853;50.848;4.108;2023-08-06T04:10:28;3.50;;;1.30;;
19434;SDS011;9853;50.848;4.108;2023-08-06T04:12:29;2.30;;;1.50;;
19434;SDS011;9853;50.848;4.108;2023-08-06T04:14:30;3.63;;;1.60;;
19434;SDS011;9853;50.848;4.108;2023-08-06T04:16:31;3.88;;;1.50;;
19434;SDS011;9853;50.848;4.108;2023-08-06T04:18:32;2.45;;;1.50;;
19434;SDS011;9853;50.848;4.108;2023-08-06T04:20:33;3.83;;;1.33;;
19434;SDS011;9853;50.848;4.108;2023-08-06T04:22:33;3.20;;;1.83;;
19434;SDS011;9853;50.848;4.108;2023-08-06T04:24:34;3.50;;;1.58;;
19434;SDS011;9853;50.848;4.108;2023-08-06T04:26:35;4.18;;;1.80;;
19434;SDS011;9853;50.848;4.108;2023-08-06T04:28:36;2.70;;;1.60;;
19434;SDS011;9853;50.848;4.108;2023-08-06T04:30:37;5.13;;;1.58;;
19434;SDS011;9853;50.848;4.108;2023-08-06T04:32:38;4.07;;;1.73;;
19434;SDS011;9853;50.848;4.108;2023-08-06T04:34:40;3.35;;;1.80;;
19434;SDS011;9853;50.848;4.108;2023-08-06T04:36:41;5.47;;;1.77;;
19434;SDS011;9853;50.848;4.108;2023-08-06T04:38:43;3.28;;;1.70;;
19434;SDS011;9853;50.848;4.108;2023-08-06T04:40:48;4.35;;;2.17;;
19434;SDS011;9853;50.848;4.108;2023-08-06T04:42:49;6.88;;;2.60;;
19434;SDS011;9853;50.848;4.108;2023-08-06T04:44:50;3.80;;;2.22;;
19434;SDS011;9853;50.848;4.108;2023-08-06T04:46:51;8.07;;;2.75;;
19434;SDS011;9853;50.848;4.108;2023-08-06T04:48:52;6.03;;;2.63;;
19434;SDS011;9853;50.848;4.108;2023-08-06T04:50:53;5.35;;;2.35;;
19434;SDS011;9853;50.848;4.108;2023-08-06T04:52:54;5.78;;;2.28;;
19434;SDS011;9853;50.848;4.108;2023-08-06T04:54:55;5.72;;;2.00;;
19434;SDS011;9853;50.848;4.108;2023-08-06T04:56:56;1.85;;;1.40;;
19434;SDS011;9853;50.848;4.108;2023-08-06T04:58:56;6.72;;;1.83;;
19434;SDS011;9853;50.848;4.108;2023-08-06T05:00:57;6.75;;;1.90;;
19434;SDS011;9853;50.848;4.108;2023-08-06T05:03:00;3.17;;;1.50;;
19434;SDS011;9853;50.848;4.108;2023-08-06T05:05:02;3.70;;;1.60;;
19434;SDS011;9853;50.848;4.108;2023-08-06T05:07:03;2.53;;;1.63;;
19434;SDS011;9853;50.848;4.108;2023-08-06T05:09:05;5.97;;;1.55;;
19434;SDS011;9853;50.848;4.108;2023-08-06T05:11:06;2.45;;;1.40;;
19434;SDS011;9853;50.848;4.108;2023-08-06T05:13:07;3.35;;;1.45;;
19434;SDS011;9853;50.848;4.108;2023-08-06T05:15:08;5.30;;;1.70;;
19434;SDS011;9853;50.848;4.108;2023-08-06T05:17:09;5.53;;;1.25;;
19434;SDS011;9853;50.848;4.108;2023-08-06T05:19:09;5.22;;;1.60;;
19434;SDS011;9853;50.848;4.108;2023-08-06T05:21:10;5.07;;;1.73;;
19434;SDS011;9853;50.848;4.108;2023-08-06T05:23:11;2.45;;;1.30;;
19434;SDS011;9853;50.848;4.108;2023-08-06T05:25:13;3.22;;;1.38;;
19434;SDS011;9853;50.848;4.108;2023-08-06T05:27:14;5.60;;;1.20;;
19434;SDS011;9853;50.848;4.108;2023-08-06T05:29:16;4.82;;;1.27;;
19434;SDS011;9853;50.848;4.108;2023-08-06T05:31:17;4.55;;;1.02;;
19434;SDS011;9853;50.848;4.108;2023-08-06T05:33:17;2.88;;;1.35;;
19434;SDS011;9853;50.848;4.108;2023-08-06T05:35:19;5.82;;;1.52;;
19434;SDS011;9853;50.848;4.108;2023-08-06T05:37:19;3.40;;;1.30;;
19434;SDS011;9853;50.848;4.108;2023-08-06T05:39:20;4.53;;;1.20;;
19434;SDS011;9853;50.848;4.108;2023-08-06T05:41:21;4.47;;;1.30;;
19434;SDS011;9853;50.848;4.108;2023-08-06T05:43:22;3.58;;;1.30;;
19434;SDS011;9853;50.848;4.108;2023-08-06T05:45:23;4.45;;;1.60;;
19434;SDS011;9853;50.848;4.108;2023-08-06T05:47:23;6.63;;;1.40;;
19434;SDS011;9853;50.848;4.108;2023-08-06T05:49:24;2.80;;;1.40;;
19434;SDS011;9853;50.848;4.108;2023-08-06T05:51:26;4.43;;;1.50;;
19434;SDS011;9853;50.848;4.108;2023-08-06T05:53:27;4.93;;;1.35;;
19434;SDS011;9853;50.848;4.108;2023-08-06T05:55:27;4.78;;;1.73;;
19434;SDS011;9853;50.848;4.108;2023-08-06T05:57:28;2.70;;;1.30;;
19434;SDS011;9853;50.848;4.108;2023-08-06T05:59:29;5.72;;;1.63;;
19434;SDS011;9853;50.848;4.108;2023-08-06T06:01:30;3.35;;;1.35;;
19434;SDS011;9853;50.848;4.108;2023-08-06T06:03:31;4.85;;;1.40;;
19434;SDS011;9853;50.848;4.108;2023-08-06T06:05:31;5.18;;;1.60;;
19434;SDS011;9853;50.848;4.108;2023-08-06T06:07:32;4.05;;;1.70;;
19434;SDS011;9853;50.848;4.108;2023-08-06T06:09:33;3.90;;;1.67;;
19434;SDS011;9853;50.848;4.108;2023-08-06T06:11:34;9.52;;;1.63;;
19434;SDS011;9853;50.848;4.108;2023-08-06T06:13:34;2.92;;;1.50;;
19434;SDS011;9853;50.848;4.108;2023-08-06T06:15:35;5.20;;;1.42;;
19434;SDS011;9853;50.848;4.108;2023-08-06T06:17:36;8.43;;;1.70;;
19434;SDS011;9853;50.848;4.108;2023-08-06T06:19:37;6.82;;;2.22;;
19434;SDS011;9853;50.848;4.108;2023-08-06T06:21:37;7.95;;;1.80;;
19434;SDS011;9853;50.848;4.108;2023-08-06T06:23:39;3.72;;;1.63;;
19434;SDS011;9853;50.848;4.108;2023-08-06T06:25:43;4.82;;;1.80;;
19434;SDS011;9853;50.848;4.108;2023-08-06T06:27:46;4.25;;;1.27;;
19434;SDS011;9853;50.848;4.108;2023-08-06T06:29:47;6.88;;;1.67;;
19434;SDS011;9853;50.848;4.108;2023-08-06T06:31:48;3.53;;;1.38;;
19434;SDS011;9853;50.848;4.108;2023-08-06T06:33:49;5.10;;;1.60;;
19434;SDS011;9853;50.848;4.108;2023-08-06T06:35:50;5.57;;;1.90;;
19434;SDS011;9853;50.848;4.108;2023-08-06T06:37:50;4.32;;;1.27;;
19434;SDS011;9853;50.848;4.108;2023-08-06T06:39:51;5.68;;;1.23;;
19434;SDS011;9853;50.848;4.108;2023-08-06T06:41:52;4.63;;;1.67;;
19434;SDS011;9853;50.848;4.108;2023-08-06T06:43:59;6.38;;;1.15;;
19434;SDS011;9853;50.848;4.108;2023-08-06T06:46:00;2.83;;;1.10;;
19434;SDS011;9853;50.848;4.108;2023-08-06T06:48:01;4.80;;;1.00;;
19434;SDS011;9853;50.848;4.108;2023-08-06T06:50:02;3.97;;;0.85;;
19434;SDS011;9853;50.848;4.108;2023-08-06T06:52:03;4.10;;;1.00;;
19434;SDS011;9853;50.848;4.108;2023-08-06T06:54:04;2.58;;;0.88;;
19434;SDS011;9853;50.848;4.108;2023-08-06T06:56:05;3.22;;;1.00;;
19434;SDS011;9853;50.848;4.108;2023-08-06T06:58:06;5.13;;;1.15;;
19434;SDS011;9853;50.848;4.108;2023-08-06T07:00:07;3.05;;;0.95;;
19434;SDS011;9853;50.848;4.108;2023-08-06T07:02:08;5.82;;;1.33;;
19434;SDS011;9853;50.848;4.108;2023-08-06T07:04:09;1.80;;;0.55;;
19434;SDS011;9853;50.848;4.108;2023-08-06T07:06:09;6.22;;;1.15;;
19434;SDS011;9853;50.848;4.108;2023-08-06T07:08:11;1.63;;;0.47;;
19434;SDS011;9853;50.848;4.108;2023-08-06T07:10:11;4.22;;;0.88;;
19434;SDS011;9853;50.848;4.108;2023-08-06T07:12:12;6.18;;;0.70;;
19434;SDS011;9853;50.848;4.108;2023-08-06T07:14:13;2.13;;;0.77;;
19434;SDS011;9853;50.848;4.108;2023-08-06T07:16:14;7.20;;;0.75;;
19434;SDS011;9853;50.848;4.108;2023-08-06T07:18:15;4.45;;;0.50;;
19434;SDS011;9853;50.848;4.108;2023-08-06T07:20:16;6.75;;;1.10;;
19434;SDS011;9853;50.848;4.108;2023-08-06T07:22:17;2.13;;;0.60;;
19434;SDS011;9853;50.848;4.108;2023-08-06T07:24:17;5.85;;;0.93;;
19434;SDS011;9853;50.848;4.108;2023-08-06T07:26:18;4.60;;;0.70;;
19434;SDS011;9853;50.848;4.108;2023-08-06T07:28:19;5.72;;;0.60;;
19434;SDS011;9853;50.848;4.108;2023-08-06T07:30:20;4.38;;;0.55;;
19434;SDS011;9853;50.848;4.108;2023-08-06T07:32:20;3.15;;;0.95;;
19434;SDS011;9853;50.848;4.108;2023-08-06T07:34:21;3.17;;;0.75;;
19434;SDS011;9853;50.848;4.108;2023-08-06T07:36:22;3.63;;;0.80;;
19434;SDS011;9853;50.848;4.108;2023-08-06T07:38:23;2.00;;;0.50;;
19434;SDS011;9853;50.848;4.108;2023-08-06T07:40:24;2.58;;;0.55;;
19434;SDS011;9853;50.848;4.108;2023-08-06T07:42:24;4.25;;;0.77;;
19434;SDS011;9853;50.848;4.108;2023-08-06T07:44:25;5.60;;;1.08;;
19434;SDS011;9853;50.848;4.108;2023-08-06T07:46:26;3.53;;;0.80;;
19434;SDS011;9853;50.848;4.108;2023-08-06T07:48:27;3.88;;;0.88;;
19434;SDS011;9853;50.848;4.108;2023-08-06T07:50:28;6.20;;;0.82;;
19434;SDS011;9853;50.848;4.108;2023-08-06T07:52:29;2.30;;;0.80;;
19434;SDS011;9853;50.848;4.108;2023-08-06T07:54:30;8.35;;;1.10;;
19434;SDS011;9853;50.848;4.108;2023-08-06T07:56:31;2.95;;;0.85;;
19434;SDS011;9853;50.848;4.108;2023-08-06T07:58:31;13.32;;;1.05;;
19434;SDS011;9853;50.848;4.108;2023-08-06T08:00:32;3.45;;;0.75;;
19434;SDS011;9853;50.848;4.108;2023-08-06T08:02:33;4.30;;;0.80;;
19434;SDS011;9853;50.848;4.108;2023-08-06T08:04:34;5.65;;;1.30;;
19434;SDS011;9853;50.848;4.108;2023-08-06T08:06:35;3.80;;;0.80;;
19434;SDS011;9853;50.848;4.108;2023-08-06T08:08:35;2.90;;;0.50;;
19434;SDS011;9853;50.848;4.108;2023-08-06T08:10:38;4.22;;;0.75;;
19434;SDS011;9853;50.848;4.108;2023-08-06T08:12:39;2.15;;;0.60;;
19434;SDS011;9853;50.848;4.108;2023-08-06T08:14:40;5.50;;;0.77;;
19434;SDS011;9853;50.848;4.108;2023-08-06T08:16:41;7.18;;;0.63;;
19434;SDS011;9853;50.848;4.108;2023-08-06T08:18:42;2.05;;;0.45;;
19434;SDS011;9853;50.848;4.108;2023-08-06T08:20:43;2.00;;;0.60;;
19434;SDS011;9853;50.848;4.108;2023-08-06T08:22:44;3.88;;;0.60;;
19434;SDS011;9853;50.848;4.108;2023-08-06T08:24:45;6.43;;;0.70;;
19434;SDS011;9853;50.848;4.108;2023-08-06T08:26:45;4.93;;;0.80;;
19434;SDS011;9853;50.848;4.108;2023-08-06T08:28:46;4.05;;;0.75;;
19434;SDS011;9853;50.848;4.108;2023-08-06T08:30:47;3.63;;;0.68;;
19434;SDS011;9853;50.848;4.108;2023-08-06T08:32:48;3.00;;;0.60;;
19434;SDS011;9853;50.848;4.108;2023-08-06T08:34:49;4.40;;;0.70;;
19434;SDS011;9853;50.848;4.108;2023-08-06T08:36:50;2.05;;;0.52;;
19434;SDS011;9853;50.848;4.108;2023-08-06T08:38:51;4.07;;;0.85;;
19434;SDS011;9853;50.848;4.108;2023-08-06T08:40:53;4.65;;;1.20;;
19434;SDS011;9853;50.848;4.108;2023-08-06T08:42:55;4.00;;;0.70;;
19434;SDS011;9853;50.848;4.108;2023-08-06T08:44:56;3.35;;;0.50;;
19434;SDS011;9853;50.848;4.108;2023-08-06T08:46:57;2.28;;;0.88;;
19434;SDS011;9853;50.848;4.108;2023-08-06T08:48:59;3.70;;;0.90;;
19434;SDS011;9853;50.848;4.108;2023-08-06T08:51:00;1.40;;;0.60;;
19434;SDS011;9853;50.848;4.108;2023-08-06T08:53:03;4.18;;;0.98;;
19434;SDS011;9853;50.848;4.108;2023-08-06T08:55:04;5.50;;;0.70;;
19434;SDS011;9853;50.848;4.108;2023-08-06T08:57:06;4.70;;;0.70;;
19434;SDS011;9853;50.848;4.108;2023-08-06T08:59:07;3.22;;;0.60;;
19434;SDS011;9853;50.848;4.108;2023-08-06T09:01:08;2.95;;;0.60;;
19434;SDS011;9853;50.848;4.108;2023-08-06T09:03:10;7.80;;;0.70;;
19434;SDS011;9853;50.848;4.108;2023-08-06T09:05:11;3.83;;;0.95;;
19434;SDS011;9853;50.848;4.108;2023-08-06T09:07:13;6.50;;;1.02;;
19434;SDS011;9853;50.848;4.108;2023-08-06T09:09:22;3.45;;;0.75;;
19434;SDS011;9853;50.848;4.108;2023-08-06T09:11:28;3.75;;;0.75;;
19434;SDS011;9853;50.848;4.108;2023-08-06T09:13:38;4.38;;;1.00;;
19434;SDS011;9853;50.848;4.108;2023-08-06T09:15:39;5.50;;;0.60;;
19434;SDS011;9853;50.848;4.108;2023-08-06T09:17:40;5.93;;;0.88;;
19434;SDS011;9853;50.848;4.108;2023-08-06T09:19:43;4.35;;;0.80;;
19434;SDS011;9853;50.848;4.108;2023-08-06T09:21:46;4.47;;;1.05;;
19434;SDS011;9853;50.848;4.108;2023-08-06T09:23:49;1.83;;;0.60;;
19434;SDS011;9853;50.848;4.108;2023-08-06T09:25:50;9.23;;;1.25;;
19434;SDS011;9853;50.848;4.108;2023-08-06T09:27:51;5.47;;;1.10;;
19434;SDS011;9853;50.848;4.108;2023-08-06T09:29:52;2.80;;;0.85;;
19434;SDS011;9853;50.848;4.108;2023-08-06T09:31:53;2.88;;;0.50;;
19434;SDS011;9853;50.848;4.108;2023-08-06T09:33:54;3.05;;;0.90;;
19434;SDS011;9853;50.848;4.108;2023-08-06T09:35:54;3.95;;;0.63;;
19434;SDS011;9853;50.848;4.108;2023-08-06T09:37:55;3.70;;;0.77;;
19434;SDS011;9853;50.848;4.108;2023-08-06T09:42:32;5.53;;;0.80;;
19434;SDS011;9853;50.848;4.108;2023-08-06T09:44:36;8.32;;;1.40;;
19434;SDS011;9853;50.848;4.108;2023-08-06T09:46:41;3.85;;;0.75;;
19434;SDS011;9853;50.848;4.108;2023-08-06T09:48:45;4.97;;;0.68;;
19434;SDS011;9853;50.848;4.108;2023-08-06T09:50:47;2.63;;;0.80;;
19434;SDS011;9853;50.848;4.108;2023-08-06T09:52:48;2.13;;;0.50;;
19434;SDS011;9853;50.848;4.108;2023-08-06T09:54:50;3.50;;;0.60;;
19434;SDS011;9853;50.848;4.108;2023-08-06T09:56:53;4.32;;;0.75;;
19434;SDS011;9853;50.848;4.108;2023-08-06T09:58:54;3.00;;;0.82;;
19434;SDS011;9853;50.848;4.108;2023-08-06T10:00:56;2.78;;;0.70;;
19434;SDS011;9853;50.848;4.108;2023-08-06T10:03:00;3.20;;;0.47;;
19434;SDS011;9853;50.848;4.108;2023-08-06T10:05:01;5.72;;;0.82;;
19434;SDS011;9853;50.848;4.108;2023-08-06T10:07:02;3.47;;;0.80;;
19434;SDS011;9853;50.848;4.108;2023-08-06T10:09:04;6.63;;;1.08;;
19434;SDS011;9853;50.848;4.108;2023-08-06T10:11:05;4.05;;;0.80;;
19434;SDS011;9853;50.848;4.108;2023-08-06T10:13:06;3.38;;;0.80;;
19434;SDS011;9853;50.848;4.108;2023-08-06T10:15:12;6.80;;;0.93;;
19434;SDS011;9853;50.848;4.108;2023-08-06T10:17:15;6.22;;;1.02;;
19434;SDS011;9853;50.848;4.108;2023-08-06T10:19:17;7.63;;;0.90;;
19434;SDS011;9853;50.848;4.108;2023-08-06T10:21:18;4.25;;;1.10;;
19434;SDS011;9853;50.848;4.108;2023-08-06T10:23:21;1.67;;;0.68;;
19434;SDS011;9853;50.848;4.108;2023-08-06T10:25:35;3.17;;;0.70;;
19434;SDS011;9853;50.848;4.108;2023-08-06T10:27:52;4.20;;;0.80;;
19434;SDS011;9853;50.848;4.108;2023-08-06T10:29:54;4.07;;;0.80;;
19434;SDS011;9853;50.848;4.108;2023-08-06T10:31:55;6.65;;;0.88;;
19434;SDS011;9853;50.848;4.108;2023-08-06T10:34:00;2.28;;;0.80;;
19434;SDS011;9853;50.848;4.108;2023-08-06T10:36:01;5.53;;;1.15;;
19434;SDS011;9853;50.848;4.108;2023-08-06T10:38:05;3.97;;;0.90;;
19434;SDS011;9853;50.848;4.108;2023-08-06T10:40:25;3.92;;;0.90;;
19434;SDS011;9853;50.848;4.108;2023-08-06T10:42:26;3.15;;;0.80;;
19434;SDS011;9853;50.848;4.108;2023-08-06T10:44:29;6.93;;;1.20;;
19434;SDS011;9853;50.848;4.108;2023-08-06T10:46:29;4.50;;;0.60;;
19434;SDS011;9853;50.848;4.108;2023-08-06T10:48:31;4.72;;;0.90;;
19434;SDS011;9853;50.848;4.108;2023-08-06T10:50:35;4.82;;;0.93;;
19434;SDS011;9853;50.848;4.108;2023-08-06T10:52:35;6.18;;;1.13;;
19434;SDS011;9853;50.848;4.108;2023-08-06T10:54:36;3.25;;;1.10;;
19434;SDS011;9853;50.848;4.108;2023-08-06T10:56:39;3.70;;;0.88;;
19434;SDS011;9853;50.848;4.108;2023-08-06T10:58:42;2.03;;;0.60;;
19434;SDS011;9853;50.848;4.108;2023-08-06T11:00:45;3.17;;;0.90;;
19434;SDS011;9853;50.848;4.108;2023-08-06T11:02:47;2.55;;;0.73;;
19434;SDS011;9853;50.848;4.108;2023-08-06T11:04:49;3.67;;;0.70;;
19434;SDS011;9853;50.848;4.108;2023-08-06T11:06:53;2.70;;;0.88;;
19434;SDS011;9853;50.848;4.108;2023-08-06T11:08:54;1.27;;;0.70;;
19434;SDS011;9853;50.848;4.108;2023-08-06T11:10:55;1.85;;;0.60;;
19434;SDS011;9853;50.848;4.108;2023-08-06T11:13:08;2.47;;;0.60;;
19434;SDS011;9853;50.848;4.108;2023-08-06T11:15:09;4.07;;;0.65;;
19434;SDS011;9853;50.848;4.108;2023-08-06T11:17:11;4.70;;;0.68;;
19434;SDS011;9853;50.848;4.108;2023-08-06T11:19:12;1.98;;;0.60;;
19434;SDS011;9853;50.848;4.108;2023-08-06T11:21:18;3.78;;;0.88;;
19434;SDS011;9853;50.848;4.108;2023-08-06T11:23:19;1.17;;;0.70;;
19434;SDS011;9853;50.848;4.108;2023-08-06T11:25:20;2.80;;;0.77;;
19434;SDS011;9853;50.848;4.108;2023-08-06T11:27:22;5.57;;;0.90;;
19434;SDS011;9853;50.848;4.108;2023-08-06T11:29:22;5.40;;;1.10;;
19434;SDS011;9853;50.848;4.108;2023-08-06T11:31:24;2.13;;;0.55;;
19434;SDS011;9853;50.848;4.108;2023-08-06T11:33:25;2.92;;;0.50;;
19434;SDS011;9853;50.848;4.108;2023-08-06T11:35:26;3.53;;;0.75;;
19434;SDS011;9853;50.848;4.108;2023-08-06T11:37:27;5.32;;;0.90;;
19434;SDS011;9853;50.848;4.108;2023-08-06T11:39:28;2.80;;;0.40;;
19434;SDS011;9853;50.848;4.108;2023-08-06T11:41:29;3.58;;;0.82;;
19434;SDS011;9853;50.848;4.108;2023-08-06T11:43:30;4.55;;;0.60;;
19434;SDS011;9853;50.848;4.108;2023-08-06T11:45:31;1.48;;;0.50;;
19434;SDS011;9853;50.848;4.108;2023-08-06T11:47:37;3.42;;;0.75;;
19434;SDS011;9853;50.848;4.108;2023-08-06T11:49:45;4.90;;;0.90;;
19434;SDS011;9853;50.848;4.108;2023-08-06T11:51:47;3.08;;;0.77;;
19434;SDS011;9853;50.848;4.108;2023-08-06T11:53:48;5.30;;;0.75;;
19434;SDS011;9853;50.848;4.108;2023-08-06T11:55:50;1.00;;;0.40;;
19434;SDS011;9853;50.848;4.108;2023-08-06T11:57:51;4.13;;;0.60;;
19434;SDS011;9853;50.848;4.108;2023-08-06T11:59:53;2.22;;;0.60;;
19434;SDS011;9853;50.848;4.108;2023-08-06T12:01:53;2.90;;;0.65;;
19434;SDS011;9853;50.848;4.108;2023-08-06T12:04:00;3.42;;;0.60;;
19434;SDS011;9853;50.848;4.108;2023-08-06T12:06:01;2.13;;;0.47;;
19434;SDS011;9853;50.848;4.108;2023-08-06T12:08:02;1.58;;;0.50;;
19434;SDS011;9853;50.848;4.108;2023-08-06T12:10:04;1.48;;;0.52;;
19434;SDS011;9853;50.848;4.108;2023-08-06T12:12:05;3.38;;;0.73;;
19434;SDS011;9853;50.848;4.108;2023-08-06T12:14:06;4.00;;;0.80;;
19434;SDS011;9853;50.848;4.108;2023-08-06T12:16:06;1.45;;;0.52;;
19434;SDS011;9853;50.848;4.108;2023-08-06T12:18:07;4.85;;;0.95;;
19434;SDS011;9853;50.848;4.108;2023-08-06T12:20:08;2.83;;;0.90;;
19434;SDS011;9853;50.848;4.108;2023-08-06T12:22:10;3.35;;;0.65;;
19434;SDS011;9853;50.848;4.108;2023-08-06T12:24:10;2.90;;;0.68;;
19434;SDS011;9853;50.848;4.108;2023-08-06T12:26:11;2.28;;;0.60;;
19434;SDS011;9853;50.848;4.108;2023-08-06T12:28:13;3.65;;;0.90;;
19434;SDS011;9853;50.848;4.108;2023-08-06T12:30:14;2.03;;;0.65;;
19434;SDS011;9853;50.848;4.108;2023-08-06T12:32:15;2.72;;;1.02;;
19434;SDS011;9853;50.848;4.108;2023-08-06T12:34:16;1.42;;;0.63;;